createdAt,value
2023-12-12T00:04:11.050Z,5.95
2023-12-12T00:14:35.659Z,5.99
2023-12-12T00:24:59.362Z,6.01
2023-12-12T00:35:23.970Z,6.01
2023-12-12T00:45:48.561Z,5.99
2023-12-12T00:56:12.575Z,5.90
2023-12-12T01:06:37.454Z,5.77
2023-12-12T01:17:02.262Z,5.75
2023-12-12T01:27:25.979Z,5.71
2023-12-12T01:37:51.226Z,5.72
2023-12-12T01:48:16.346Z,5.75
2023-12-12T01:58:42.113Z,5.77
2023-12-12T02:09:06.691Z,5.83
2023-12-12T02:19:31.241Z,5.86
2023-12-12T02:29:55.881Z,5.89
2023-12-12T02:40:21.010Z,5.91
2023-12-12T02:50:45.597Z,5.91
2023-12-12T03:01:13.411Z,5.88
2023-12-12T03:11:38.071Z,5.84
2023-12-12T03:22:02.224Z,5.84
2023-12-12T03:32:25.811Z,5.84
2023-12-12T03:42:53.749Z,5.82
2023-12-12T03:53:18.434Z,5.79
2023-12-12T04:03:42.503Z,5.73
2023-12-12T04:14:06.917Z,5.66
2023-12-12T04:24:31.295Z,5.59
2023-12-12T04:34:55.387Z,5.50
2023-12-12T04:45:20.295Z,5.40
2023-12-12T04:55:44.550Z,5.31
2023-12-12T05:06:11.799Z,5.23
2023-12-12T05:16:36.541Z,5.21
2023-12-12T05:27:00.666Z,5.17
2023-12-12T05:37:24.424Z,5.10
2023-12-12T05:47:50.420Z,5.03
2023-12-12T05:58:14.830Z,4.99
2023-12-12T06:08:38.807Z,4.98
2023-12-12T06:19:07.060Z,5.00
2023-12-12T06:29:31.473Z,5.02
2023-12-12T06:39:56.009Z,5.04
2023-12-12T06:50:20.817Z,5.07
2023-12-12T07:00:45.790Z,5.06
2023-12-12T07:11:09.938Z,5.11
2023-12-12T07:21:47.029Z,5.14
2023-12-12T07:32:12.776Z,5.18
2023-12-12T07:42:37.055Z,5.19
2023-12-12T07:53:02.449Z,5.22
2023-12-12T08:03:27.565Z,5.26
2023-12-12T08:13:52.600Z,5.33
2023-12-12T08:24:17.586Z,5.37
2023-12-12T08:34:42.263Z,5.45
2023-12-12T08:45:07.553Z,5.44
2023-12-12T08:55:33.128Z,5.47
2023-12-12T09:05:58.392Z,5.54
2023-12-12T09:16:22.670Z,5.52
2023-12-12T09:26:48.056Z,5.57
2023-12-12T09:37:12.486Z,5.75
2023-12-12T09:47:37.665Z,5.90
2023-12-12T09:58:02.447Z,5.83
2023-12-12T10:08:30.082Z,5.90
2023-12-12T10:18:56.369Z,6.05
2023-12-12T10:29:24.398Z,6.08
2023-12-12T10:39:50.489Z,6.19
2023-12-12T10:50:16.636Z,6.28
2023-12-12T11:00:42.504Z,6.35
2023-12-12T11:11:11.506Z,6.48
2023-12-12T11:21:51.392Z,6.52
2023-12-12T11:32:20.000Z,6.60
2023-12-12T11:42:46.510Z,6.54
2023-12-12T11:53:10.572Z,6.55
2023-12-12T12:03:35.144Z,6.53
2023-12-12T12:13:59.226Z,6.40
2023-12-12T12:24:23.560Z,6.41
2023-12-12T12:34:48.417Z,6.58
2023-12-12T12:45:13.012Z,6.78
2023-12-12T12:55:42.392Z,6.84
2023-12-12T13:06:10.314Z,6.95
2023-12-12T13:16:35.414Z,7.03
2023-12-12T13:26:59.414Z,7.03
2023-12-12T13:37:23.915Z,6.99
2023-12-12T13:47:48.412Z,6.98
2023-12-12T13:58:12.859Z,6.96
2023-12-12T14:08:37.504Z,6.96
2023-12-12T14:19:02.493Z,6.85
2023-12-12T14:29:26.648Z,6.73
2023-12-12T14:39:51.334Z,6.70
2023-12-12T14:50:15.504Z,6.71
2023-12-12T15:00:39.396Z,6.71
2023-12-12T15:11:03.957Z,6.68
2023-12-12T15:21:28.987Z,6.50
2023-12-12T15:31:53.615Z,6.37
2023-12-12T15:42:17.839Z,6.29
2023-12-12T15:52:42.546Z,6.27
2023-12-12T16:03:10.890Z,6.34
2023-12-12T16:13:37.683Z,6.51
2023-12-12T16:24:03.907Z,6.58
2023-12-12T16:34:28.140Z,6.49
2023-12-12T16:44:53.477Z,6.28
2023-12-12T16:55:18.014Z,6.10
2023-12-12T17:05:42.360Z,5.96
2023-12-12T17:16:07.576Z,5.81
2023-12-12T17:26:32.430Z,5.73
2023-12-12T17:36:56.911Z,5.79
2023-12-12T17:47:21.606Z,5.76
2023-12-12T17:57:47.156Z,5.64
2023-12-12T18:08:11.944Z,5.34
2023-12-12T18:18:37.648Z,4.96
2023-12-12T18:29:05.072Z,4.48
2023-12-12T18:39:29.131Z,3.93
2023-12-12T18:49:54.221Z,3.45
2023-12-12T19:00:18.993Z,3.26
2023-12-12T19:10:42.924Z,3.47
2023-12-12T19:21:07.227Z,3.60
2023-12-12T19:31:31.636Z,3.44
2023-12-12T19:41:55.486Z,3.11
2023-12-12T19:52:20.466Z,2.77
2023-12-12T20:02:44.983Z,2.22
2023-12-12T20:13:10.404Z,1.89
2023-12-12T20:23:34.799Z,1.79
2023-12-12T20:33:58.920Z,2.07
2023-12-12T20:44:23.262Z,2.30
2023-12-12T20:54:48.350Z,2.51
2023-12-12T21:05:12.873Z,2.63
2023-12-12T21:15:37.372Z,2.66
2023-12-12T21:26:01.933Z,2.68
2023-12-12T21:36:26.287Z,2.65
2023-12-12T21:46:51.887Z,2.64
2023-12-12T21:57:22.044Z,2.64
2023-12-12T22:07:53.583Z,2.81
2023-12-12T22:18:20.084Z,3.00
2023-12-12T22:28:44.749Z,3.11
2023-12-12T22:39:15.902Z,3.24
2023-12-12T22:49:43.103Z,3.29
2023-12-12T23:00:25.847Z,3.28
2023-12-12T23:10:50.763Z,3.26
2023-12-12T23:21:14.747Z,3.22
2023-12-12T23:31:42.000Z,3.21
2023-12-12T23:42:06.834Z,3.20
2023-12-12T23:52:31.040Z,3.29
